createdAt,value
2019-05-28T00:00:49.923Z,10.25
2019-05-28T00:03:28.756Z,10.93
2019-05-28T00:06:06.685Z,11.95
2019-05-28T00:08:49.358Z,13.25
2019-05-28T00:11:26.842Z,12.58
2019-05-28T00:14:04.562Z,13.10
2019-05-28T00:16:42.034Z,14.70
2019-05-28T00:19:19.479Z,14.47
2019-05-28T00:21:56.959Z,15.58
2019-05-28T00:24:34.870Z,14.33
2019-05-28T00:27:12.547Z,16.73
2019-05-28T00:29:49.806Z,18.92
2019-05-28T00:32:27.122Z,18.65
2019-05-28T00:35:09.310Z,19.25
2019-05-28T00:37:46.963Z,19.20
2019-05-28T00:40:24.589Z,22.98
2019-05-28T00:43:02.079Z,23.27
2019-05-28T00:45:40.110Z,24.05
2019-05-28T00:48:17.499Z,20.82
2019-05-28T00:50:55.205Z,21.05
2019-05-28T00:53:32.515Z,15.95
2019-05-28T00:56:11.704Z,14.50
2019-05-28T00:58:49.455Z,16.55
2019-05-28T01:01:27.529Z,15.38
2019-05-28T01:04:05.349Z,16.20
2019-05-28T01:06:43.663Z,16.12
2019-05-28T01:09:21.607Z,15.85
2019-05-28T01:11:59.183Z,16.07
2019-05-28T01:14:42.328Z,17.15
2019-05-28T01:17:19.834Z,17.23
2019-05-28T01:19:57.206Z,16.70
2019-05-28T01:22:34.680Z,15.95
2019-05-28T01:25:16.396Z,14.43
2019-05-28T01:27:51.826Z,12.90
2019-05-28T01:30:29.899Z,13.88
2019-05-28T01:33:07.212Z,12.53
2019-05-28T01:35:44.809Z,12.60
2019-05-28T01:38:22.352Z,11.73
2019-05-28T01:41:00.830Z,10.80
2019-05-28T01:43:38.756Z,9.58
2019-05-28T01:46:16.575Z,9.20
2019-05-28T01:48:54.468Z,7.45
2019-05-28T01:51:32.233Z,8.98
2019-05-28T01:54:09.636Z,7.55
2019-05-28T01:56:49.068Z,7.47
2019-05-28T01:59:26.722Z,8.90
2019-05-28T02:02:04.193Z,7.87
2019-05-28T02:04:42.016Z,7.80
2019-05-28T02:07:19.628Z,7.53
2019-05-28T02:09:57.489Z,7.95
2019-05-28T02:12:35.331Z,6.30
2019-05-28T02:15:13.404Z,7.92
2019-05-28T02:17:50.701Z,6.85
2019-05-28T02:20:27.851Z,7.37
2019-05-28T02:23:05.632Z,6.83
2019-05-28T02:25:46.590Z,7.40
2019-05-28T02:28:24.975Z,7.62
2019-05-28T02:31:02.799Z,8.28
2019-05-28T02:33:40.803Z,7.62
2019-05-28T02:36:18.200Z,7.22
2019-05-28T02:38:56.280Z,7.05
2019-05-28T02:41:33.816Z,6.37
2019-05-28T02:44:11.149Z,7.08
2019-05-28T02:46:49.215Z,6.17
2019-05-28T02:49:28.216Z,6.10
2019-05-28T02:52:06.204Z,6.20
2019-05-28T02:54:43.845Z,5.80
2019-05-28T02:57:24.159Z,5.75
2019-05-28T03:00:03.213Z,5.60
2019-05-28T03:02:44.525Z,6.45
2019-05-28T03:05:21.742Z,6.25
2019-05-28T03:07:59.510Z,5.70
2019-05-28T03:11:01.587Z,6.75
2019-05-28T03:13:16.856Z,5.42
2019-05-28T03:15:56.830Z,5.42
2019-05-28T03:18:38.187Z,5.62
2019-05-28T03:21:17.836Z,5.50
2019-05-28T03:23:59.051Z,4.92
2019-05-28T03:26:36.444Z,4.58
2019-05-28T03:29:13.780Z,5.00
2019-05-28T03:32:06.834Z,4.97
2019-05-28T03:34:31.609Z,5.60
2019-05-28T03:37:09.984Z,4.92
2019-05-28T03:39:51.017Z,4.85
2019-05-28T03:42:29.623Z,4.70
2019-05-28T03:45:07.710Z,5.22
2019-05-28T03:47:46.232Z,4.87
2019-05-28T03:50:27.056Z,5.58
2019-05-28T03:53:04.666Z,6.12
2019-05-28T03:55:42.681Z,5.62
2019-05-28T03:58:20.159Z,5.42
2019-05-28T04:00:57.666Z,5.33
2019-05-28T04:03:35.053Z,6.28
2019-05-28T04:06:12.679Z,5.90
2019-05-28T04:08:50.589Z,6.20
2019-05-28T04:11:43.668Z,6.37
2019-05-28T04:14:07.217Z,6.37
2019-05-28T04:16:45.249Z,7.05
2019-05-28T04:19:22.721Z,8.85
2019-05-28T04:22:00.227Z,8.85
2019-05-28T04:24:37.690Z,7.90
2019-05-28T04:27:15.215Z,7.95
2019-05-28T04:29:52.713Z,7.97
2019-05-28T04:32:40.041Z,8.63
2019-05-28T04:35:09.785Z,8.33
2019-05-28T04:37:47.231Z,8.60
2019-05-28T04:40:24.875Z,9.55
2019-05-28T04:43:02.710Z,8.93
2019-05-28T04:45:40.134Z,9.20
2019-05-28T04:48:17.942Z,9.58
2019-05-28T04:50:55.726Z,10.88
2019-05-28T04:53:34.189Z,10.13
2019-05-28T04:56:11.667Z,10.63
2019-05-28T04:58:53.117Z,10.30
2019-05-28T05:01:31.443Z,10.80
2019-05-28T05:04:08.932Z,11.12
2019-05-28T05:06:47.230Z,10.18
2019-05-28T05:09:26.186Z,10.03
2019-05-28T05:12:03.698Z,11.03
2019-05-28T05:14:41.544Z,8.50
2019-05-28T05:17:18.990Z,8.73
2019-05-28T05:19:56.835Z,9.03
2019-05-28T05:22:34.562Z,8.65
2019-05-28T05:25:13.731Z,9.70
2019-05-28T05:27:51.769Z,10.32
2019-05-28T05:30:29.555Z,9.88
2019-05-28T05:33:19.939Z,9.40
2019-05-28T05:35:46.248Z,10.03
2019-05-28T05:38:33.000Z,11.00
2019-05-28T05:41:10.467Z,8.98
2019-05-28T05:43:47.926Z,10.10
2019-05-28T05:46:26.414Z,11.15
2019-05-28T05:49:04.217Z,10.43
2019-05-28T05:51:41.617Z,9.95
2019-05-28T05:54:19.656Z,11.10
2019-05-28T05:56:57.464Z,9.90
2019-05-28T05:59:36.716Z,9.35
2019-05-28T06:02:15.292Z,9.68
2019-05-28T06:04:52.757Z,9.90
2019-05-28T06:07:30.282Z,8.50
2019-05-28T06:10:08.035Z,9.23
2019-05-28T06:12:46.579Z,8.83
2019-05-28T06:15:25.242Z,9.65
2019-05-28T06:18:03.102Z,9.98
2019-05-28T06:20:40.580Z,8.93
2019-05-28T06:23:17.998Z,9.40
2019-05-28T06:25:55.670Z,9.78
2019-05-28T06:28:33.826Z,10.40
2019-05-28T06:31:12.430Z,9.43
2019-05-28T06:33:56.576Z,7.62
2019-05-28T06:36:29.318Z,8.23
2019-05-28T06:39:08.177Z,7.55
2019-05-28T06:41:45.506Z,9.35
2019-05-28T06:44:23.207Z,8.63
2019-05-28T06:47:00.682Z,8.63
2019-05-28T06:49:38.202Z,8.40
2019-05-28T06:52:15.624Z,8.88
2019-05-28T06:54:53.684Z,7.85
2019-05-28T06:57:31.100Z,7.25
2019-05-28T07:00:09.248Z,7.35
2019-05-28T07:02:46.849Z,6.75
2019-05-28T07:05:25.881Z,6.28
2019-05-28T07:08:03.650Z,5.78
2019-05-28T07:10:56.411Z,6.05
2019-05-28T07:13:20.982Z,6.70
2019-05-28T07:15:58.374Z,5.50
2019-05-28T07:18:35.854Z,6.90
2019-05-28T07:21:13.725Z,6.33
2019-05-28T07:23:51.015Z,6.15
2019-05-28T07:26:28.578Z,6.17
2019-05-28T07:29:06.401Z,5.65
2019-05-28T07:31:43.846Z,5.95
2019-05-28T07:34:30.613Z,5.37
2019-05-28T07:37:03.777Z,5.75
2019-05-28T07:39:41.871Z,5.87
2019-05-28T07:42:31.705Z,6.95
2019-05-28T07:44:58.237Z,6.30
2019-05-28T07:47:35.693Z,6.62
2019-05-28T07:50:13.162Z,5.87
2019-05-28T07:52:50.639Z,5.42
2019-05-28T07:55:27.935Z,6.95
2019-05-28T07:58:05.414Z,6.97
2019-05-28T08:00:43.621Z,6.70
2019-05-28T08:03:21.048Z,6.58
2019-05-28T08:05:58.930Z,7.00
2019-05-28T08:08:42.215Z,7.40
2019-05-28T08:11:20.205Z,6.45
2019-05-28T08:13:57.726Z,7.25
2019-05-28T08:16:52.955Z,7.20
2019-05-28T08:19:29.733Z,6.92
2019-05-28T08:22:08.149Z,6.72
2019-05-28T08:24:46.086Z,6.05
2019-05-28T08:27:24.131Z,7.50
2019-05-28T08:30:01.582Z,7.05
2019-05-28T08:32:39.411Z,6.97
2019-05-28T08:35:16.661Z,6.50
2019-05-28T08:37:55.625Z,7.15
2019-05-28T08:40:33.055Z,6.47
2019-05-28T08:43:10.656Z,7.28
2019-05-28T08:45:48.176Z,8.15
2019-05-28T08:48:25.662Z,7.25
2019-05-28T08:51:04.316Z,7.85
2019-05-28T08:53:41.675Z,8.45
2019-05-28T08:56:19.326Z,8.98
2019-05-28T08:58:56.432Z,9.23
2019-05-28T09:01:33.725Z,8.55
2019-05-28T09:04:11.328Z,7.12
2019-05-28T09:06:49.055Z,7.47
2019-05-28T09:09:27.448Z,8.98
2019-05-28T09:12:05.175Z,10.10
2019-05-28T09:14:55.858Z,10.13
2019-05-28T09:17:21.755Z,9.85
2019-05-28T09:19:59.483Z,9.20
2019-05-28T09:22:36.733Z,10.15
2019-05-28T09:25:14.533Z,9.63
2019-05-28T09:27:52.300Z,8.50
2019-05-28T09:30:33.647Z,9.15
2019-05-28T09:33:11.670Z,9.53
2019-05-28T09:36:06.336Z,9.23
2019-05-28T09:38:28.463Z,9.28
2019-05-28T09:41:06.341Z,6.60
2019-05-28T09:43:44.893Z,9.33
2019-05-28T09:46:22.388Z,8.78
2019-05-28T09:49:00.701Z,8.70
2019-05-28T09:51:38.527Z,5.78
2019-05-28T09:54:15.944Z,8.95
2019-05-28T09:56:55.658Z,9.93
2019-05-28T09:59:41.471Z,10.48
2019-05-28T10:02:13.284Z,10.00
2019-05-28T10:04:52.091Z,10.00
2019-05-28T10:07:29.572Z,10.60
2019-05-28T10:10:07.710Z,9.38
2019-05-28T10:12:45.494Z,10.70
2019-05-28T10:15:23.022Z,9.63
2019-05-28T10:18:00.582Z,10.32
2019-05-28T10:20:38.422Z,10.18
2019-05-28T10:23:15.962Z,8.63
2019-05-28T10:25:53.438Z,10.55
2019-05-28T10:28:30.926Z,10.70
2019-05-28T10:31:08.364Z,10.85
2019-05-28T10:33:45.667Z,9.60
2019-05-28T10:36:35.455Z,9.00
2019-05-28T10:39:01.762Z,9.68
2019-05-28T10:41:39.369Z,9.55
2019-05-28T10:44:16.525Z,11.12
2019-05-28T10:46:53.807Z,10.63
2019-05-28T10:49:31.585Z,9.68
2019-05-28T10:52:09.253Z,10.65
2019-05-28T10:54:46.484Z,10.45
2019-05-28T10:57:24.064Z,10.32
2019-05-28T11:00:01.447Z,9.75
2019-05-28T11:02:39.006Z,10.63
2019-05-28T11:05:18.307Z,9.78
2019-05-28T11:07:55.890Z,9.25
2019-05-28T11:10:35.137Z,8.75
2019-05-28T11:13:31.950Z,9.35
2019-05-28T11:16:41.361Z,10.10
2019-05-28T11:19:26.183Z,8.58
2019-05-28T11:22:04.657Z,9.88
2019-05-28T11:24:44.887Z,10.43
2019-05-28T11:27:24.167Z,10.10
2019-05-28T11:30:01.710Z,11.28
2019-05-28T11:32:39.324Z,10.85
2019-05-28T11:35:17.874Z,11.00
2019-05-28T11:37:55.450Z,11.48
2019-05-28T11:40:33.367Z,9.73
2019-05-28T11:43:11.463Z,9.73
2019-05-28T11:45:48.913Z,9.30
2019-05-28T11:48:30.155Z,9.55
2019-05-28T11:51:07.770Z,8.53
2019-05-28T11:53:45.652Z,8.65
2019-05-28T11:56:23.158Z,8.90
2019-05-28T11:59:00.685Z,8.30
2019-05-28T12:01:41.232Z,9.58
2019-05-28T12:04:18.690Z,9.30
2019-05-28T12:06:56.106Z,9.23
2019-05-28T12:09:33.499Z,8.45
2019-05-28T12:12:10.743Z,9.80
2019-05-28T12:14:48.300Z,9.93
2019-05-28T12:17:41.617Z,9.30
2019-05-28T12:20:05.230Z,9.35
2019-05-28T12:22:42.665Z,9.70
2019-05-28T12:25:20.898Z,10.45
2019-05-28T12:27:58.451Z,10.43
2019-05-28T12:30:35.976Z,9.23
2019-05-28T12:33:15.278Z,9.28
2019-05-28T12:35:53.406Z,9.20
2019-05-28T12:38:30.827Z,10.25
2019-05-28T12:41:08.379Z,9.28
2019-05-28T12:43:45.630Z,10.25
2019-05-28T12:46:23.047Z,9.93
2019-05-28T12:49:00.442Z,8.78
2019-05-28T12:51:37.900Z,10.23
2019-05-28T12:54:15.382Z,8.05
2019-05-28T12:56:52.619Z,7.37
2019-05-28T12:59:30.422Z,8.78
2019-05-28T13:02:08.662Z,8.28
2019-05-28T13:04:46.147Z,9.30
2019-05-28T13:07:23.469Z,10.30
2019-05-28T13:10:00.945Z,8.20
2019-05-28T13:12:38.501Z,8.60
2019-05-28T13:15:16.136Z,7.67
2019-05-28T13:17:53.426Z,7.75
2019-05-28T13:20:42.559Z,7.45
2019-05-28T13:23:19.866Z,9.10
2019-05-28T13:25:58.019Z,9.68
2019-05-28T13:28:35.281Z,8.80
2019-05-28T13:31:12.577Z,9.23
2019-05-28T13:33:50.785Z,8.38
2019-05-28T13:36:29.817Z,9.53
2019-05-28T13:39:09.232Z,9.30
2019-05-28T13:41:46.746Z,10.45
2019-05-28T13:44:24.023Z,9.23
2019-05-28T13:47:01.399Z,8.15
2019-05-28T13:49:39.930Z,7.60
2019-05-28T13:52:17.270Z,9.25
2019-05-28T13:54:55.618Z,8.70
2019-05-28T13:57:33.624Z,9.08
2019-05-28T14:00:12.449Z,9.88
2019-05-28T14:02:49.938Z,10.48
2019-05-28T14:05:27.687Z,11.65
2019-05-28T14:08:05.213Z,9.28
2019-05-28T14:10:42.963Z,9.20
2019-05-28T14:13:20.454Z,8.95
2019-05-28T14:16:04.108Z,9.30
2019-05-28T14:18:42.128Z,8.18
2019-05-28T14:21:24.184Z,8.60
2019-05-28T14:26:37.850Z,7.53
2019-05-28T14:29:16.276Z,8.70
2019-05-28T14:31:53.814Z,8.73
2019-05-28T14:34:31.519Z,7.90
2019-05-28T14:37:08.844Z,8.60
2019-05-28T14:39:46.118Z,8.03
2019-05-28T14:42:23.395Z,9.55
2019-05-28T14:45:00.831Z,8.45
2019-05-28T14:47:39.008Z,8.30
2019-05-28T14:50:16.798Z,7.72
2019-05-28T14:52:54.090Z,7.10
2019-05-28T14:55:31.432Z,7.62
2019-05-28T14:58:13.224Z,6.95
2019-05-28T15:00:48.278Z,7.17
2019-05-28T15:03:26.005Z,7.47
2019-05-28T15:06:03.223Z,6.97
2019-05-28T15:08:40.587Z,7.95
2019-05-28T15:11:18.466Z,6.50
2019-05-28T15:13:56.611Z,6.42
2019-05-28T15:16:34.533Z,6.37
2019-05-28T15:19:12.334Z,6.12
2019-05-28T15:21:50.765Z,6.00
2019-05-28T15:24:28.263Z,6.37
2019-05-28T15:27:05.678Z,5.92
2019-05-28T15:29:43.550Z,6.72
2019-05-28T15:32:20.743Z,5.83
2019-05-28T15:34:58.204Z,5.55
2019-05-28T15:37:36.240Z,5.37
2019-05-28T15:40:13.924Z,5.70
2019-05-28T15:43:05.157Z,5.20
2019-05-28T15:45:30.347Z,6.37
2019-05-28T15:48:08.010Z,6.83
2019-05-28T15:50:45.374Z,5.65
2019-05-28T15:53:22.552Z,5.15
2019-05-28T15:55:59.754Z,5.87
2019-05-28T15:58:37.258Z,5.67
2019-05-28T16:01:14.583Z,4.70
2019-05-28T16:03:52.029Z,4.83
2019-05-28T16:06:29.473Z,4.45
2019-05-28T16:09:12.879Z,5.15
2019-05-28T16:11:49.632Z,5.72
2019-05-28T16:14:26.915Z,5.58
2019-05-28T16:17:04.204Z,5.78
2019-05-28T16:19:41.583Z,6.10
2019-05-28T16:22:18.884Z,5.65
2019-05-28T16:24:56.503Z,5.47
2019-05-28T16:27:34.417Z,5.78
2019-05-28T16:30:12.451Z,6.65
2019-05-28T16:32:50.081Z,5.87
2019-05-28T16:35:27.349Z,7.20
2019-05-28T16:38:05.561Z,7.28
2019-05-28T16:40:43.050Z,7.90
2019-05-28T16:43:21.350Z,8.68
2019-05-28T16:46:03.487Z,7.90
2019-05-28T16:48:40.940Z,6.28
2019-05-28T16:51:18.272Z,6.47
2019-05-28T16:53:55.901Z,6.85
2019-05-28T16:56:33.667Z,7.47
2019-05-28T16:59:11.485Z,6.28
2019-05-28T17:01:51.583Z,6.80
2019-05-28T17:04:29.360Z,6.15
2019-05-28T17:07:06.774Z,6.35
2019-05-28T17:09:44.533Z,6.78
2019-05-28T17:12:22.513Z,6.97
2019-05-28T17:14:59.895Z,6.90
2019-05-28T17:17:37.797Z,6.60
2019-05-28T17:20:15.711Z,7.05
2019-05-28T17:22:55.294Z,7.33
2019-05-28T17:25:32.819Z,6.70
2019-05-28T17:28:10.500Z,7.78
2019-05-28T17:30:48.332Z,8.50
2019-05-28T17:33:27.292Z,8.18
2019-05-28T17:36:05.656Z,7.42
2019-05-28T17:38:43.591Z,9.23
2019-05-28T17:41:21.181Z,7.80
2019-05-28T17:43:58.526Z,7.87
2019-05-28T17:46:36.109Z,8.05
2019-05-28T17:49:15.012Z,8.35
2019-05-28T17:51:54.015Z,7.15
2019-05-28T17:54:31.330Z,7.03
2019-05-28T17:57:08.843Z,7.80
2019-05-28T17:59:47.365Z,7.40
2019-05-28T18:02:24.727Z,7.85
2019-05-28T18:05:03.174Z,7.70
2019-05-28T18:07:41.243Z,7.25
2019-05-28T18:10:19.355Z,7.00
2019-05-28T18:12:57.989Z,7.28
2019-05-28T18:15:35.543Z,7.67
2019-05-28T18:18:15.010Z,7.30
2019-05-28T18:20:53.967Z,7.65
2019-05-28T18:23:31.516Z,7.95
2019-05-28T18:26:08.974Z,7.72
2019-05-28T18:28:46.693Z,7.72
2019-05-28T18:31:24.210Z,8.78
2019-05-28T18:34:02.816Z,8.98
2019-05-28T18:36:53.150Z,8.50
2019-05-28T18:39:30.771Z,8.68
2019-05-28T18:42:08.726Z,8.58
2019-05-28T18:44:46.443Z,9.78
2019-05-28T18:47:24.214Z,9.50
2019-05-28T18:50:03.187Z,10.53
2019-05-28T18:52:40.945Z,12.03
2019-05-28T18:55:19.603Z,12.33
2019-05-28T18:57:57.388Z,13.10
2019-05-28T19:00:35.037Z,11.73
2019-05-28T19:03:12.804Z,11.00
2019-05-28T19:05:50.337Z,11.18
2019-05-28T19:08:27.802Z,11.63
2019-05-28T19:11:05.557Z,10.82
2019-05-28T19:13:43.056Z,12.68
2019-05-28T19:16:20.706Z,12.82
2019-05-28T19:18:59.690Z,11.88
2019-05-28T19:21:37.286Z,11.45
2019-05-28T19:24:14.795Z,9.28
2019-05-28T19:26:57.903Z,10.08
2019-05-28T19:29:35.381Z,10.30
2019-05-28T19:32:16.824Z,10.05
2019-05-28T19:34:55.569Z,10.00
2019-05-28T19:37:34.433Z,12.25
2019-05-28T19:40:14.854Z,11.93
2019-05-28T19:42:52.354Z,11.77
2019-05-28T19:45:30.268Z,10.58
2019-05-28T19:48:08.254Z,11.20
2019-05-28T19:50:47.439Z,10.70
2019-05-28T19:53:28.271Z,10.87
2019-05-28T19:56:05.807Z,10.05
2019-05-28T19:58:43.493Z,11.70
2019-05-28T20:01:21.182Z,10.38
2019-05-28T20:03:59.036Z,11.57
2019-05-28T20:06:36.931Z,12.33
2019-05-28T20:09:14.931Z,11.83
2019-05-28T20:14:33.547Z,11.40
2019-05-28T20:17:11.048Z,11.45
2019-05-28T20:19:54.123Z,11.22
2019-05-28T20:22:32.223Z,11.50
2019-05-28T20:25:11.471Z,10.15
2019-05-28T20:27:50.068Z,10.78
2019-05-28T20:30:28.084Z,10.55
2019-05-28T20:33:07.393Z,10.45
2019-05-28T20:35:44.785Z,10.88
2019-05-28T20:38:22.256Z,10.70
2019-05-28T20:40:59.971Z,10.70
2019-05-28T20:43:37.359Z,9.75
2019-05-28T20:46:15.206Z,9.63
2019-05-28T20:48:53.133Z,9.35
2019-05-28T20:51:30.805Z,9.45
2019-05-28T20:54:08.601Z,8.58
2019-05-28T20:56:58.075Z,7.97
2019-05-28T20:59:36.007Z,7.90
2019-05-28T21:02:13.475Z,7.62
2019-05-28T21:04:50.760Z,7.10
2019-05-28T21:07:28.554Z,8.20
2019-05-28T21:10:06.450Z,8.00
2019-05-28T21:12:44.988Z,8.08
2019-05-28T21:15:22.486Z,8.40
2019-05-28T21:18:00.377Z,8.63
2019-05-28T21:20:38.263Z,8.28
2019-05-28T21:23:17.843Z,8.35
2019-05-28T21:25:54.730Z,8.73
2019-05-28T21:28:33.130Z,9.25
2019-05-28T21:31:10.552Z,9.35
2019-05-28T21:33:49.060Z,9.48
2019-05-28T21:36:26.493Z,9.13
2019-05-28T21:39:05.373Z,10.20
2019-05-28T21:41:42.765Z,11.10
2019-05-28T21:44:22.087Z,10.55
2019-05-28T21:47:00.412Z,12.58
2019-05-28T21:49:38.970Z,11.20
2019-05-28T21:52:16.588Z,10.80
2019-05-28T21:54:55.038Z,11.60
2019-05-28T21:57:32.404Z,11.78
2019-05-28T22:00:16.272Z,10.68
2019-05-28T22:02:56.428Z,11.33
2019-05-28T22:05:36.159Z,10.50
2019-05-28T22:08:13.652Z,10.60
2019-05-28T22:10:51.604Z,10.85
2019-05-28T22:13:30.428Z,9.63
2019-05-28T22:16:09.011Z,9.40
2019-05-28T22:18:47.652Z,10.43
2019-05-28T22:21:25.379Z,10.05
2019-05-28T22:24:02.813Z,11.15
2019-05-28T22:26:41.003Z,11.33
2019-05-28T22:29:18.855Z,11.28
2019-05-28T22:31:56.687Z,11.70
2019-05-28T22:34:35.446Z,11.50
2019-05-28T22:37:14.103Z,12.20
2019-05-28T22:39:51.731Z,12.05
2019-05-28T22:42:30.119Z,11.70
2019-05-28T22:45:07.511Z,10.15
2019-05-28T22:47:45.266Z,9.35
2019-05-28T22:50:23.550Z,9.15
2019-05-28T22:53:01.844Z,8.80
2019-05-28T22:55:39.528Z,8.90
2019-05-28T22:58:22.528Z,7.67
2019-05-28T23:01:00.431Z,8.00
2019-05-28T23:03:37.838Z,7.90
2019-05-28T23:06:15.592Z,7.78
2019-05-28T23:08:53.014Z,7.85
2019-05-28T23:11:30.398Z,7.78
2019-05-28T23:14:08.226Z,6.92
2019-05-28T23:16:46.758Z,9.00
2019-05-28T23:19:24.580Z,8.05
2019-05-28T23:22:04.851Z,8.73
2019-05-28T23:24:43.658Z,7.47
2019-05-28T23:27:21.217Z,7.62
2019-05-28T23:29:58.560Z,7.08
2019-05-28T23:32:36.510Z,7.10
2019-05-28T23:35:15.455Z,7.00
2019-05-28T23:37:52.808Z,6.90
2019-05-28T23:40:31.367Z,7.22
2019-05-28T23:43:09.484Z,6.95
2019-05-28T23:45:47.010Z,7.12
2019-05-28T23:48:24.503Z,6.62
2019-05-28T23:51:01.979Z,6.37
2019-05-28T23:53:44.088Z,7.33
2019-05-28T23:56:21.441Z,6.55
2019-05-28T23:58:58.700Z,6.78
